createdAt,value
2022-12-08T00:01:41.660Z,22.27
2022-12-08T00:04:09.244Z,23.10
2022-12-08T00:06:59.737Z,22.33
2022-12-08T00:09:38.319Z,20.50
2022-12-08T00:12:06.462Z,24.50
2022-12-08T00:14:38.148Z,22.13
2022-12-08T00:17:06.741Z,19.27
2022-12-08T00:19:34.235Z,22.10
2022-12-08T00:22:01.821Z,22.57
2022-12-08T00:24:32.957Z,24.23
2022-12-08T00:27:00.073Z,20.43
2022-12-08T00:29:27.475Z,20.87
2022-12-08T00:31:54.648Z,19.83
2022-12-08T00:34:21.804Z,19.43
2022-12-08T00:36:48.965Z,20.20
2022-12-08T00:39:16.628Z,19.93
2022-12-08T00:42:02.789Z,19.90
2022-12-08T00:44:29.990Z,18.80
2022-12-08T00:46:57.204Z,21.93
2022-12-08T00:49:24.293Z,19.97
2022-12-08T00:51:51.405Z,18.57
2022-12-08T00:54:18.772Z,19.67
2022-12-08T00:56:46.535Z,22.40
2022-12-08T00:59:13.708Z,20.83
2022-12-08T01:01:40.867Z,20.10
2022-12-08T01:04:09.289Z,18.93
2022-12-08T01:06:36.731Z,20.30
2022-12-08T01:09:05.029Z,20.93
2022-12-08T01:11:32.588Z,18.47
2022-12-08T01:13:59.877Z,24.17
2022-12-08T01:16:29.128Z,22.63
2022-12-08T01:18:57.428Z,24.17
2022-12-08T01:21:24.552Z,20.70
2022-12-08T01:23:51.670Z,19.77
2022-12-08T01:26:19.472Z,19.17
2022-12-08T01:28:47.349Z,20.27
2022-12-08T01:31:16.722Z,19.63
2022-12-08T01:33:44.441Z,19.90
2022-12-08T01:36:22.525Z,16.80
2022-12-08T01:38:50.134Z,15.90
2022-12-08T01:41:18.582Z,19.00
2022-12-08T01:44:02.384Z,18.20
2022-12-08T01:46:30.676Z,17.13
2022-12-08T01:49:02.433Z,16.13
2022-12-08T01:51:31.044Z,16.90
2022-12-08T01:53:58.138Z,15.67
2022-12-08T01:56:28.518Z,16.40
2022-12-08T01:58:56.215Z,15.23
2022-12-08T02:01:23.796Z,15.50
2022-12-08T02:03:53.949Z,17.77
2022-12-08T02:06:21.149Z,18.27
2022-12-08T02:08:51.151Z,17.53
2022-12-08T02:11:18.276Z,19.10
2022-12-08T02:13:46.928Z,15.73
2022-12-08T02:16:29.320Z,16.33
2022-12-08T02:19:30.216Z,14.30
2022-12-08T02:21:59.476Z,15.37
2022-12-08T02:24:29.570Z,15.73
2022-12-08T02:27:19.085Z,13.53
2022-12-08T02:29:49.243Z,14.73
2022-12-08T02:32:22.144Z,14.57
2022-12-08T02:34:58.188Z,18.60
2022-12-08T02:37:34.160Z,15.17
2022-12-08T02:40:15.687Z,14.60
2022-12-08T02:42:51.409Z,14.33
2022-12-08T02:45:31.243Z,13.27
2022-12-08T02:47:59.345Z,13.43
2022-12-08T02:50:26.784Z,15.10
2022-12-08T02:52:54.384Z,16.43
2022-12-08T02:55:21.596Z,15.03
2022-12-08T02:57:54.777Z,16.03
2022-12-08T03:00:23.232Z,15.90
2022-12-08T03:02:53.532Z,12.70
2022-12-08T03:05:35.904Z,15.63
2022-12-08T03:08:15.949Z,13.03
2022-12-08T03:10:45.839Z,15.10
2022-12-08T03:13:17.232Z,14.97
2022-12-08T03:15:46.743Z,15.70
2022-12-08T03:18:15.692Z,16.43
2022-12-08T03:20:43.623Z,16.60
2022-12-08T03:23:12.646Z,17.10
2022-12-08T03:25:42.405Z,17.33
2022-12-08T03:28:10.846Z,16.60
2022-12-08T03:30:39.599Z,15.77
2022-12-08T03:33:13.003Z,16.73
2022-12-08T03:35:41.368Z,17.30
2022-12-08T03:38:11.176Z,15.07
2022-12-08T03:40:38.472Z,14.43
2022-12-08T03:43:05.600Z,16.27
2022-12-08T03:45:32.695Z,15.83
2022-12-08T03:47:59.865Z,16.00
2022-12-08T03:50:27.007Z,16.37
2022-12-08T03:52:54.192Z,13.53
2022-12-08T03:55:21.578Z,13.83
2022-12-08T03:57:48.737Z,13.63
2022-12-08T04:00:17.031Z,15.83
2022-12-08T04:02:44.370Z,12.83
2022-12-08T04:05:11.631Z,13.90
2022-12-08T04:07:38.804Z,13.60
2022-12-08T04:10:06.612Z,13.60
2022-12-08T04:12:33.943Z,14.00
2022-12-08T04:15:01.071Z,12.90
2022-12-08T04:17:28.222Z,12.07
2022-12-08T04:19:55.343Z,10.87
2022-12-08T04:22:22.492Z,12.43
2022-12-08T04:24:49.661Z,11.00
2022-12-08T04:27:16.758Z,10.63
2022-12-08T04:29:43.955Z,13.00
2022-12-08T04:32:11.160Z,12.40
2022-12-08T04:34:38.416Z,12.90
2022-12-08T04:37:05.608Z,12.10
2022-12-08T04:39:32.753Z,10.47
2022-12-08T04:41:59.927Z,10.13
2022-12-08T04:44:27.104Z,11.67
2022-12-08T04:46:54.293Z,13.93
2022-12-08T04:49:21.566Z,12.53
2022-12-08T04:51:48.957Z,16.17
2022-12-08T04:54:16.058Z,14.53
2022-12-08T04:56:43.191Z,11.17
2022-12-08T04:59:10.259Z,11.63
2022-12-08T05:01:37.476Z,12.63
2022-12-08T05:04:04.774Z,14.03
2022-12-08T05:06:31.953Z,13.63
2022-12-08T05:08:59.077Z,12.43
2022-12-08T05:11:26.235Z,14.37
2022-12-08T05:13:53.383Z,12.47
2022-12-08T05:16:20.713Z,11.63
2022-12-08T05:18:47.874Z,11.90
2022-12-08T05:21:15.431Z,13.83
2022-12-08T05:23:42.538Z,13.07
2022-12-08T05:26:09.719Z,11.57
2022-12-08T05:28:41.711Z,12.43
2022-12-08T05:31:09.811Z,12.00
2022-12-08T05:33:37.051Z,13.83
2022-12-08T05:36:04.409Z,12.67
2022-12-08T05:38:31.571Z,11.97
2022-12-08T05:40:58.716Z,12.70
2022-12-08T05:43:25.866Z,13.57
2022-12-08T05:45:53.013Z,13.50
2022-12-08T05:48:20.388Z,13.07
2022-12-08T05:50:48.130Z,13.83
2022-12-08T05:53:15.737Z,12.87
2022-12-08T05:55:42.984Z,12.97
2022-12-08T05:58:12.798Z,11.43
2022-12-08T06:00:40.052Z,13.10
2022-12-08T06:03:07.413Z,12.40
2022-12-08T06:05:35.517Z,13.37
2022-12-08T06:08:02.989Z,13.23
2022-12-08T06:10:30.144Z,15.27
2022-12-08T06:12:57.511Z,12.20
2022-12-08T06:15:24.626Z,13.57
2022-12-08T06:17:51.810Z,13.53
2022-12-08T06:20:18.972Z,14.27
2022-12-08T06:22:46.075Z,12.13
2022-12-08T06:25:13.409Z,13.23
2022-12-08T06:27:40.563Z,14.53
2022-12-08T06:30:07.967Z,14.57
2022-12-08T06:32:35.159Z,14.13
2022-12-08T06:35:02.399Z,13.90
2022-12-08T06:37:29.585Z,12.57
2022-12-08T06:39:56.974Z,14.20
2022-12-08T06:42:42.793Z,16.47
2022-12-08T06:45:10.548Z,13.53
2022-12-08T06:47:37.680Z,12.30
2022-12-08T06:50:05.666Z,12.63
2022-12-08T06:52:33.101Z,16.00
2022-12-08T06:55:00.220Z,13.63
2022-12-08T06:57:27.379Z,14.20
2022-12-08T06:59:54.566Z,16.47
2022-12-08T07:02:21.831Z,13.47
2022-12-08T07:04:48.939Z,13.77
2022-12-08T07:07:16.109Z,14.87
2022-12-08T07:09:43.289Z,14.30
2022-12-08T07:12:10.574Z,14.13
2022-12-08T07:14:37.673Z,13.97
2022-12-08T07:17:05.054Z,11.57
2022-12-08T07:19:32.270Z,16.57
2022-12-08T07:21:59.421Z,15.90
2022-12-08T07:24:26.637Z,17.17
2022-12-08T07:26:53.760Z,16.87
2022-12-08T07:29:26.075Z,19.40
2022-12-08T07:31:53.757Z,16.40
2022-12-08T07:34:20.949Z,20.27
2022-12-08T07:36:48.072Z,20.20
2022-12-08T07:39:15.198Z,19.83
2022-12-08T07:41:42.322Z,16.37
2022-12-08T07:44:09.704Z,16.80
2022-12-08T07:46:36.861Z,17.80
2022-12-08T07:49:04.175Z,17.23
2022-12-08T07:51:31.268Z,18.13
2022-12-08T07:53:58.410Z,15.77
2022-12-08T07:56:25.605Z,16.30
2022-12-08T07:58:52.875Z,16.97
2022-12-08T08:01:25.334Z,15.43
2022-12-08T08:03:53.041Z,15.43
2022-12-08T08:06:20.254Z,17.27
2022-12-08T08:08:47.400Z,14.47
2022-12-08T08:11:20.887Z,15.27
2022-12-08T08:13:49.167Z,14.97
2022-12-08T08:16:16.658Z,15.90
2022-12-08T08:18:43.967Z,14.60
2022-12-08T08:23:58.131Z,16.83
2022-12-08T08:26:25.280Z,14.47
2022-12-08T08:28:52.516Z,15.20
2022-12-08T08:31:24.791Z,16.90
2022-12-08T08:33:52.015Z,16.57
2022-12-08T08:36:19.328Z,14.10
2022-12-08T08:38:46.442Z,15.83
2022-12-08T08:41:13.679Z,18.60
2022-12-08T08:43:40.960Z,14.00
2022-12-08T08:46:09.148Z,14.93
2022-12-08T08:48:36.410Z,18.27
2022-12-08T08:51:10.961Z,17.77
2022-12-08T08:53:38.385Z,20.43
2022-12-08T08:56:12.266Z,17.37
2022-12-08T08:58:39.613Z,19.30
2022-12-08T09:01:06.848Z,16.70
2022-12-08T09:03:33.974Z,16.20
2022-12-08T09:06:01.196Z,15.37
2022-12-08T09:08:28.437Z,14.23
2022-12-08T09:10:55.717Z,15.90
2022-12-08T09:13:22.867Z,19.07
2022-12-08T09:15:50.064Z,15.83
2022-12-08T09:18:17.286Z,14.30
2022-12-08T09:20:44.410Z,14.73
2022-12-08T09:23:11.538Z,15.67
2022-12-08T09:25:38.735Z,16.50
2022-12-08T09:28:05.850Z,16.20
2022-12-08T09:30:32.965Z,16.73
2022-12-08T09:33:00.138Z,16.43
2022-12-08T09:35:27.288Z,16.70
2022-12-08T09:37:54.431Z,14.83
2022-12-08T09:40:23.537Z,17.27
2022-12-08T09:43:07.524Z,16.50
2022-12-08T09:45:36.070Z,15.80
2022-12-08T09:48:03.156Z,15.77
2022-12-08T09:50:39.238Z,16.90
2022-12-08T09:53:09.351Z,15.57
2022-12-08T09:55:48.868Z,16.10
2022-12-08T09:58:20.799Z,16.77
2022-12-08T10:00:48.198Z,15.73
2022-12-08T10:03:16.998Z,21.93
2022-12-08T10:05:50.512Z,22.57
2022-12-08T10:08:23.332Z,17.33
2022-12-08T10:11:03.600Z,18.23
2022-12-08T10:13:36.861Z,16.47
2022-12-08T10:16:24.393Z,16.23
2022-12-08T10:18:58.124Z,17.33
2022-12-08T10:21:27.561Z,20.83
2022-12-08T10:24:04.719Z,19.10
2022-12-08T10:26:32.904Z,19.77
2022-12-08T10:29:02.889Z,18.30
2022-12-08T10:31:30.778Z,17.90
2022-12-08T10:33:59.263Z,16.60
2022-12-08T10:36:47.255Z,17.33
2022-12-08T10:39:33.190Z,16.77
2022-12-08T10:42:07.692Z,16.40
2022-12-08T10:44:39.161Z,17.17
2022-12-08T10:47:13.777Z,15.47
2022-12-08T10:49:41.021Z,15.87
2022-12-08T10:52:10.181Z,15.87
2022-12-08T10:54:38.394Z,16.60
2022-12-08T10:57:05.568Z,15.83
2022-12-08T10:59:34.369Z,16.03
2022-12-08T11:02:01.650Z,17.73
2022-12-08T11:04:36.537Z,14.53
2022-12-08T11:07:05.201Z,16.60
2022-12-08T11:09:46.736Z,14.53
2022-12-08T11:12:15.300Z,14.27
2022-12-08T11:14:45.908Z,14.63
2022-12-08T11:17:13.348Z,14.07
2022-12-08T11:19:41.104Z,15.70
2022-12-08T11:22:26.233Z,13.47
2022-12-08T11:25:00.273Z,14.63
2022-12-08T11:27:27.403Z,14.27
2022-12-08T11:29:54.640Z,13.47
2022-12-08T11:32:22.082Z,14.03
2022-12-08T11:35:03.039Z,14.13
2022-12-08T11:37:34.680Z,12.83
2022-12-08T11:40:05.997Z,14.47
2022-12-08T11:42:36.637Z,15.03
2022-12-08T11:45:08.773Z,14.53
2022-12-08T11:47:38.043Z,15.33
2022-12-08T11:50:25.753Z,15.63
2022-12-08T11:52:52.987Z,14.87
2022-12-08T11:55:41.612Z,16.10
2022-12-08T11:58:22.213Z,12.17
2022-12-08T12:00:50.053Z,13.03
2022-12-08T12:03:24.355Z,14.43
2022-12-08T12:06:37.723Z,13.17
2022-12-08T12:09:06.978Z,13.67
2022-12-08T12:12:00.078Z,14.57
2022-12-08T12:14:30.006Z,15.80
2022-12-08T12:17:01.495Z,17.00
2022-12-08T12:19:30.333Z,12.40
2022-12-08T12:21:58.066Z,14.10
2022-12-08T12:24:31.560Z,13.83
2022-12-08T12:27:16.489Z,15.17
2022-12-08T12:29:49.809Z,13.73
2022-12-08T12:32:21.676Z,14.70
2022-12-08T12:34:53.980Z,16.10
2022-12-08T12:37:22.737Z,16.63
2022-12-08T12:39:55.869Z,13.90
2022-12-08T12:42:41.867Z,13.83
2022-12-08T12:45:19.016Z,13.40
2022-12-08T12:47:55.914Z,13.43
2022-12-08T12:50:33.130Z,16.73
2022-12-08T12:53:20.617Z,16.90
2022-12-08T12:55:55.535Z,16.77
2022-12-08T12:58:29.394Z,16.23
2022-12-08T13:01:12.079Z,16.37
2022-12-08T13:03:39.260Z,15.57
2022-12-08T13:06:11.332Z,15.20
2022-12-08T13:08:42.799Z,13.80
2022-12-08T13:11:11.117Z,15.37
2022-12-08T13:13:39.099Z,13.67
2022-12-08T13:16:19.133Z,17.43
2022-12-08T13:18:51.116Z,13.17
2022-12-08T13:21:20.857Z,13.50
2022-12-08T13:23:48.076Z,16.03
2022-12-08T13:26:15.301Z,14.13
2022-12-08T13:29:08.595Z,14.30
2022-12-08T13:31:41.682Z,13.67
2022-12-08T13:34:15.096Z,15.87
2022-12-08T13:36:50.277Z,12.43
2022-12-08T13:39:30.073Z,11.50
2022-12-08T13:42:07.028Z,14.87
2022-12-08T13:48:20.442Z,13.63
2022-12-08T13:54:42.489Z,13.17
2022-12-08T13:59:07.748Z,12.47
2022-12-08T14:01:39.703Z,13.03
2022-12-08T14:04:42.158Z,14.80
2022-12-08T14:06:56.649Z,16.43
2022-12-08T14:09:27.255Z,15.57
2022-12-08T14:11:59.797Z,14.63
2022-12-08T14:15:00.642Z,12.23
2022-12-08T14:17:18.926Z,13.53
2022-12-08T14:19:52.946Z,13.13
2022-12-08T14:22:20.129Z,13.57
2022-12-08T14:24:52.169Z,12.03
2022-12-08T14:27:20.904Z,12.67
2022-12-08T14:29:49.578Z,11.17
2022-12-08T14:32:22.849Z,9.27
2022-12-08T14:34:57.725Z,7.07
2022-12-08T14:37:26.761Z,9.83
2022-12-08T14:39:54.628Z,6.50
2022-12-08T14:42:23.635Z,6.90
2022-12-08T14:45:01.518Z,7.17
2022-12-08T14:47:32.518Z,9.40
2022-12-08T14:49:59.825Z,6.40
2022-12-08T14:52:27.644Z,6.03
2022-12-08T14:54:54.859Z,7.83
2022-12-08T14:57:22.212Z,6.57
2022-12-08T14:59:50.182Z,8.03
2022-12-08T15:02:24.216Z,7.67
2022-12-08T15:04:57.445Z,7.83
2022-12-08T15:07:29.384Z,10.10
2022-12-08T15:10:15.440Z,11.13
2022-12-08T15:13:01.471Z,7.93
2022-12-08T15:15:29.092Z,9.87
2022-12-08T15:18:02.493Z,8.80
2022-12-08T15:20:46.364Z,11.97
2022-12-08T15:23:25.789Z,9.97
2022-12-08T15:25:53.374Z,9.90
2022-12-08T15:28:26.694Z,8.23
2022-12-08T15:30:56.929Z,9.83
2022-12-08T15:33:24.242Z,11.03
2022-12-08T15:35:51.733Z,9.40
2022-12-08T15:38:26.717Z,10.30
2022-12-08T15:40:54.593Z,10.27
2022-12-08T15:43:21.994Z,10.57
2022-12-08T15:45:58.254Z,8.47
2022-12-08T15:48:27.873Z,8.33
2022-12-08T15:50:56.036Z,8.43
2022-12-08T15:53:23.367Z,9.87
2022-12-08T15:56:25.249Z,11.57
2022-12-08T15:58:53.674Z,8.87
2022-12-08T16:01:21.808Z,8.37
2022-12-08T16:09:29.020Z,8.70
2022-12-08T16:12:15.127Z,8.63
2022-12-08T16:17:31.388Z,11.23
2022-12-08T16:19:59.255Z,14.30
2022-12-08T16:25:19.788Z,11.97
2022-12-08T16:30:35.262Z,11.67
2022-12-08T16:33:02.625Z,14.73
2022-12-08T16:35:30.173Z,18.97
2022-12-08T16:37:57.495Z,19.67
2022-12-08T16:40:24.704Z,18.03
2022-12-08T16:42:51.960Z,16.23
2022-12-08T16:45:23.687Z,15.40
2022-12-08T16:47:52.346Z,15.33
2022-12-08T16:50:19.496Z,19.30
2022-12-08T16:52:46.984Z,15.73
2022-12-08T16:55:15.962Z,14.10
2022-12-08T16:57:43.619Z,11.37
2022-12-08T17:00:12.853Z,10.97
2022-12-08T17:02:40.398Z,11.03
2022-12-08T17:05:07.835Z,12.00
2022-12-08T17:07:36.133Z,13.57
2022-12-08T17:10:05.106Z,14.07
2022-12-08T17:12:32.610Z,11.10
2022-12-08T17:14:59.743Z,14.17
2022-12-08T17:17:26.919Z,11.67
2022-12-08T17:19:54.022Z,13.73
2022-12-08T17:22:21.176Z,13.23
2022-12-08T17:24:48.433Z,15.07
2022-12-08T17:27:15.616Z,14.80
2022-12-08T17:29:42.750Z,16.80
2022-12-08T17:32:09.950Z,14.67
2022-12-08T17:34:37.135Z,13.97
2022-12-08T17:37:04.560Z,12.60
2022-12-08T17:39:31.725Z,14.03
2022-12-08T17:41:58.930Z,14.87
2022-12-08T17:44:26.168Z,12.90
2022-12-08T17:46:53.553Z,13.60
2022-12-08T17:49:25.056Z,13.73
2022-12-08T17:51:53.692Z,12.93
2022-12-08T17:54:20.885Z,14.30
2022-12-08T17:56:48.035Z,15.90
2022-12-08T17:59:15.846Z,16.33
2022-12-08T18:01:43.164Z,13.30
2022-12-08T18:04:10.838Z,19.40
2022-12-08T18:06:38.376Z,33.20
2022-12-08T18:09:06.771Z,27.20
2022-12-08T18:11:34.743Z,38.83
2022-12-08T18:14:09.353Z,38.13
2022-12-08T18:16:37.910Z,29.50
2022-12-08T18:19:05.330Z,30.83
2022-12-08T18:21:32.519Z,22.80
2022-12-08T18:23:59.887Z,25.17
2022-12-08T18:26:27.127Z,28.97
2022-12-08T18:28:54.283Z,20.70
2022-12-08T18:31:22.652Z,19.00
2022-12-08T18:33:50.388Z,16.70
2022-12-08T18:36:18.804Z,15.33
2022-12-08T18:38:46.280Z,16.03
2022-12-08T18:41:15.462Z,14.43
2022-12-08T18:43:42.658Z,15.47
2022-12-08T18:46:11.408Z,14.77
2022-12-08T18:48:39.498Z,17.80
2022-12-08T18:51:13.778Z,12.83
2022-12-08T18:53:41.241Z,12.00
2022-12-08T18:56:08.878Z,15.70
2022-12-08T18:58:36.273Z,13.13
2022-12-08T19:01:03.517Z,14.17
2022-12-08T19:03:30.712Z,13.07
2022-12-08T19:06:04.432Z,13.60
2022-12-08T19:08:31.930Z,15.27
2022-12-08T19:10:59.279Z,19.23
2022-12-08T19:13:27.296Z,20.43
2022-12-08T19:15:54.829Z,18.03
2022-12-08T19:18:22.056Z,15.67
2022-12-08T19:20:49.227Z,14.03
2022-12-08T19:23:16.550Z,15.63
2022-12-08T19:25:43.673Z,15.63
2022-12-08T19:28:10.823Z,17.13
2022-12-08T19:30:38.046Z,20.40
2022-12-08T19:33:05.352Z,21.60
2022-12-08T19:35:32.496Z,21.77
2022-12-08T19:37:59.645Z,21.10
2022-12-08T19:40:45.742Z,18.67
2022-12-08T19:43:41.486Z,20.33
2022-12-08T19:46:09.220Z,19.93
2022-12-08T19:48:36.469Z,20.37
2022-12-08T19:51:03.779Z,25.73
2022-12-08T19:53:30.908Z,23.93
2022-12-08T19:55:58.093Z,25.07
2022-12-08T19:58:25.265Z,25.37
2022-12-08T20:00:52.467Z,22.43
2022-12-08T20:03:21.151Z,18.73
2022-12-08T20:05:49.177Z,18.33
2022-12-08T20:08:16.534Z,21.40
2022-12-08T20:10:44.324Z,19.20
2022-12-08T20:13:30.492Z,22.50
2022-12-08T20:15:57.983Z,19.77
2022-12-08T20:18:25.515Z,25.13
2022-12-08T20:20:52.653Z,21.87
2022-12-08T20:23:19.836Z,22.30
2022-12-08T20:25:47.903Z,19.43
2022-12-08T20:28:15.344Z,20.37
2022-12-08T20:30:42.838Z,22.00
2022-12-08T20:33:10.997Z,20.37
2022-12-08T20:35:38.149Z,17.73
2022-12-08T20:38:05.290Z,16.17
2022-12-08T20:40:32.449Z,16.03
2022-12-08T20:42:59.532Z,16.37
2022-12-08T20:45:26.659Z,15.70
2022-12-08T20:47:53.854Z,15.27
2022-12-08T20:50:21.285Z,16.67
2022-12-08T20:52:48.498Z,17.47
2022-12-08T20:55:15.685Z,23.90
2022-12-08T20:57:43.009Z,28.83
2022-12-08T21:00:11.315Z,27.33
2022-12-08T21:02:45.072Z,25.47
2022-12-08T21:05:15.204Z,21.63
2022-12-08T21:07:42.720Z,24.03
2022-12-08T21:10:10.982Z,24.40
2022-12-08T21:12:38.553Z,22.87
2022-12-08T21:15:07.488Z,25.97
2022-12-08T21:17:34.724Z,22.40
2022-12-08T21:20:02.117Z,18.70
2022-12-08T21:22:29.454Z,19.60
2022-12-08T21:24:56.929Z,19.07
2022-12-08T21:27:24.303Z,13.47
2022-12-08T21:29:51.444Z,16.20
2022-12-08T21:32:18.710Z,15.70
2022-12-08T21:34:45.987Z,15.73
2022-12-08T21:37:13.314Z,19.73
2022-12-08T21:39:40.467Z,18.03
2022-12-08T21:42:32.309Z,18.43
2022-12-08T21:45:01.312Z,17.97
2022-12-08T21:47:28.627Z,14.87
2022-12-08T21:49:57.039Z,18.30
2022-12-08T21:52:24.267Z,18.60
2022-12-08T21:54:51.495Z,15.43
2022-12-08T21:57:18.689Z,13.73
2022-12-08T21:59:45.930Z,14.83
2022-12-08T22:02:18.035Z,17.77
2022-12-08T22:04:49.656Z,14.27
2022-12-08T22:07:17.171Z,13.83
2022-12-08T22:09:44.679Z,15.60
2022-12-08T22:12:12.262Z,17.13
2022-12-08T22:14:40.386Z,14.47
2022-12-08T22:17:07.948Z,17.67
2022-12-08T22:19:35.488Z,22.27
2022-12-08T22:22:03.088Z,23.23
2022-12-08T22:24:30.962Z,17.37
2022-12-08T22:26:58.335Z,16.70
2022-12-08T22:29:25.724Z,16.67
2022-12-08T22:31:53.093Z,12.23
2022-12-08T22:34:20.526Z,12.37
2022-12-08T22:36:49.147Z,14.53
2022-12-08T22:39:16.572Z,11.37
2022-12-08T22:41:44.113Z,13.67
2022-12-08T22:44:12.308Z,10.37
2022-12-08T22:46:39.926Z,12.60
2022-12-08T22:49:07.253Z,12.60
2022-12-08T22:51:36.695Z,16.20
2022-12-08T22:54:04.445Z,16.87
2022-12-08T22:56:31.732Z,15.13
2022-12-08T22:58:59.459Z,16.60
2022-12-08T23:01:31.389Z,15.67
2022-12-08T23:03:59.332Z,14.70
2022-12-08T23:06:27.221Z,13.27
2022-12-08T23:08:54.895Z,15.97
2022-12-08T23:11:22.938Z,15.00
2022-12-08T23:13:50.266Z,15.80
2022-12-08T23:16:17.464Z,15.83
2022-12-08T23:18:45.489Z,14.33
2022-12-08T23:21:14.029Z,14.57
2022-12-08T23:23:41.559Z,14.77
2022-12-08T23:26:18.685Z,13.47
2022-12-08T23:28:45.871Z,14.30
2022-12-08T23:31:13.223Z,15.50
2022-12-08T23:33:40.548Z,14.43
2022-12-08T23:36:07.893Z,13.77
2022-12-08T23:38:35.332Z,15.00
2022-12-08T23:41:03.565Z,13.53
2022-12-08T23:43:30.775Z,16.10
2022-12-08T23:45:58.097Z,22.20
2022-12-08T23:48:26.755Z,21.37
2022-12-08T23:50:53.950Z,15.47
2022-12-08T23:53:21.207Z,15.83
2022-12-08T23:55:48.403Z,20.77
2022-12-08T23:58:15.686Z,13.47
